createdAt,value
2018-11-21T00:02:14.225Z,98023.19
2018-11-21T00:04:42.356Z,98017.97
2018-11-21T00:07:10.513Z,98003.76
2018-11-21T00:09:38.637Z,98004.45
2018-11-21T00:12:06.829Z,98002.16
2018-11-21T00:14:35.011Z,98019.80
2018-11-21T00:17:03.156Z,98016.22
2018-11-21T00:19:31.295Z,98029.38
2018-11-21T00:21:59.448Z,98033.63
2018-11-21T00:24:27.576Z,98034.30
2018-11-21T00:26:55.695Z,98045.09
2018-11-21T00:29:23.875Z,98042.30
2018-11-21T00:31:52.063Z,98046.33
2018-11-21T00:34:20.238Z,98040.63
2018-11-21T00:36:48.427Z,98046.38
2018-11-21T00:39:16.545Z,98052.56
2018-11-21T00:41:44.677Z,98048.31
2018-11-21T00:44:13.218Z,98041.13
2018-11-21T00:46:41.325Z,98052.34
2018-11-21T00:49:09.470Z,98047.16
2018-11-21T00:51:37.605Z,98048.30
2018-11-21T00:54:05.816Z,98052.83
2018-11-21T00:56:34.017Z,98052.64
2018-11-21T00:59:02.150Z,98047.83
2018-11-21T01:01:30.267Z,98044.78
2018-11-21T01:03:58.426Z,98040.19
2018-11-21T01:06:26.547Z,98046.41
2018-11-21T01:08:54.684Z,98047.78
2018-11-21T01:11:22.817Z,98039.64
2018-11-21T01:13:50.961Z,98045.73
2018-11-21T01:16:19.082Z,98054.25
2018-11-21T01:18:47.352Z,98060.70
2018-11-21T01:21:15.467Z,98065.37
2018-11-21T01:23:43.602Z,98075.78
2018-11-21T01:26:11.717Z,98077.77
2018-11-21T01:28:39.851Z,98076.42
2018-11-21T01:31:07.977Z,98081.58
2018-11-21T01:33:36.098Z,98093.20
2018-11-21T01:36:04.480Z,98102.23
2018-11-21T01:38:33.244Z,98102.68
2018-11-21T01:41:01.394Z,98112.45
2018-11-21T01:43:29.568Z,98112.77
2018-11-21T01:45:57.689Z,98119.33
2018-11-21T01:48:25.847Z,98124.05
2018-11-21T01:50:53.989Z,98127.73
2018-11-21T01:53:22.289Z,98122.64
2018-11-21T01:55:50.427Z,98129.39
2018-11-21T01:58:18.545Z,98130.58
2018-11-21T02:00:46.705Z,98135.73
2018-11-21T02:03:14.849Z,98146.97
2018-11-21T02:05:42.966Z,98147.58
2018-11-21T02:08:11.109Z,98145.08
2018-11-21T02:10:39.283Z,98137.42
2018-11-21T02:13:07.405Z,98132.27
2018-11-21T02:15:35.541Z,98124.24
2018-11-21T02:18:04.350Z,98119.80
2018-11-21T02:20:32.526Z,98119.97
2018-11-21T02:23:00.669Z,98116.17
2018-11-21T02:25:28.809Z,98118.11
2018-11-21T02:27:56.947Z,98111.23
2018-11-21T02:30:25.102Z,98110.55
2018-11-21T02:32:53.239Z,98107.88
2018-11-21T02:35:21.386Z,98111.92
2018-11-21T02:37:49.530Z,98113.63
2018-11-21T02:40:17.688Z,98125.09
2018-11-21T02:42:45.816Z,98136.42
2018-11-21T02:45:13.955Z,98131.23
2018-11-21T02:47:42.090Z,98132.50
2018-11-21T02:50:10.263Z,98130.38
2018-11-21T02:52:38.435Z,98120.05
2018-11-21T02:55:07.145Z,98133.52
2018-11-21T02:57:35.936Z,98130.50
2018-11-21T03:00:09.280Z,98127.23
2018-11-21T03:02:37.414Z,98143.98
2018-11-21T03:05:06.270Z,98143.59
2018-11-21T03:07:34.412Z,98155.61
2018-11-21T03:10:02.608Z,98163.27
2018-11-21T03:12:31.706Z,98171.23
2018-11-21T03:14:59.859Z,98175.25
2018-11-21T03:17:28.019Z,98174.27
2018-11-21T03:19:56.167Z,98173.37
2018-11-21T03:22:24.290Z,98189.94
2018-11-21T03:24:52.438Z,98193.08
2018-11-21T03:27:20.613Z,98193.87
2018-11-21T03:29:48.787Z,98192.52
2018-11-21T03:32:16.982Z,98183.22
2018-11-21T03:34:45.183Z,98185.98
2018-11-21T03:37:13.251Z,98176.86
2018-11-21T03:39:41.408Z,98174.33
2018-11-21T03:42:09.558Z,98170.84
2018-11-21T03:44:37.731Z,98171.21
2018-11-21T03:47:06.657Z,98171.91
2018-11-21T03:49:34.801Z,98167.89
2018-11-21T03:52:02.962Z,98163.95
2018-11-21T03:54:31.077Z,98165.09
2018-11-21T03:56:59.222Z,98164.45
2018-11-21T03:59:27.343Z,98158.47
2018-11-21T04:01:55.492Z,98156.39
2018-11-21T04:04:23.649Z,98177.66
2018-11-21T04:06:51.822Z,98189.93
2018-11-21T04:09:19.978Z,98199.79
2018-11-21T04:11:48.126Z,98203.52
2018-11-21T04:14:16.261Z,98201.45
2018-11-21T04:16:44.482Z,98199.14
2018-11-21T04:19:12.729Z,98200.36
2018-11-21T04:21:40.887Z,98198.73
2018-11-21T04:24:09.049Z,98211.52
2018-11-21T04:26:37.831Z,98221.19
2018-11-21T04:29:06.916Z,98227.66
2018-11-21T04:31:35.056Z,98227.98
2018-11-21T04:34:03.195Z,98226.77
2018-11-21T04:36:31.326Z,98223.77
2018-11-21T04:38:59.505Z,98236.91
2018-11-21T04:41:27.624Z,98238.84
2018-11-21T04:43:55.920Z,98243.32
2018-11-21T04:46:24.054Z,98246.71
2018-11-21T04:48:52.225Z,98250.70
2018-11-21T04:51:20.386Z,98254.84
2018-11-21T04:53:48.553Z,98255.50
2018-11-21T04:56:16.677Z,98257.76
2018-11-21T04:58:44.836Z,98257.76
2018-11-21T05:01:12.993Z,98262.72
2018-11-21T05:03:41.495Z,98268.43
2018-11-21T05:06:09.639Z,98272.20
2018-11-21T05:08:37.796Z,98276.70
2018-11-21T05:11:06.432Z,98279.50
2018-11-21T05:13:34.170Z,98289.18
2018-11-21T05:16:02.328Z,98278.35
2018-11-21T05:18:32.774Z,98277.56
2018-11-21T05:21:00.932Z,98287.00
2018-11-21T05:23:29.091Z,98293.16
2018-11-21T05:25:57.214Z,98291.25
2018-11-21T05:28:25.362Z,98293.22
2018-11-21T05:30:53.703Z,98296.40
2018-11-21T05:33:21.987Z,98296.02
2018-11-21T05:35:50.180Z,98297.74
2018-11-21T05:38:18.299Z,98298.43
2018-11-21T05:40:46.508Z,98299.16
2018-11-21T05:43:14.668Z,98299.81
2018-11-21T05:45:42.836Z,98309.77
2018-11-21T05:48:10.988Z,98320.24
2018-11-21T05:50:39.131Z,98320.24
2018-11-21T05:53:07.278Z,98322.59
2018-11-21T05:55:35.394Z,98322.19
2018-11-21T05:58:03.537Z,98329.27
2018-11-21T06:00:31.679Z,98334.77
2018-11-21T06:02:59.816Z,98323.19
2018-11-21T06:05:27.961Z,98330.36
2018-11-21T06:07:56.083Z,98333.63
2018-11-21T06:10:24.210Z,98339.89
2018-11-21T06:12:52.347Z,98336.07
2018-11-21T06:15:20.500Z,98336.22
2018-11-21T06:17:48.634Z,98334.23
2018-11-21T06:20:16.802Z,98337.91
2018-11-21T06:22:45.289Z,98342.17
2018-11-21T06:25:13.798Z,98349.84
2018-11-21T06:27:41.951Z,98354.53
2018-11-21T06:30:11.664Z,98357.47
2018-11-21T06:32:40.107Z,98360.14
2018-11-21T06:35:09.307Z,98366.80
2018-11-21T06:37:37.890Z,98370.89
2018-11-21T06:40:08.876Z,98373.12
2018-11-21T06:42:37.012Z,98384.56
2018-11-21T06:45:07.208Z,98384.20
2018-11-21T06:47:35.333Z,98385.87
2018-11-21T06:50:03.866Z,98394.58
2018-11-21T06:52:32.016Z,98390.93
2018-11-21T06:55:00.163Z,98406.27
2018-11-21T06:57:28.346Z,98397.62
2018-11-21T06:59:56.482Z,98395.74
2018-11-21T07:02:24.654Z,98396.18
2018-11-21T07:04:52.796Z,98401.39
2018-11-21T07:07:20.997Z,98408.78
2018-11-21T07:09:49.141Z,98421.00
2018-11-21T07:12:17.283Z,98435.42
2018-11-21T07:14:45.512Z,98441.08
2018-11-21T07:17:13.578Z,98446.70
2018-11-21T07:19:41.705Z,98446.70
2018-11-21T07:22:09.837Z,98444.28
2018-11-21T07:24:37.976Z,98446.14
2018-11-21T07:27:06.355Z,98442.98
2018-11-21T07:29:34.834Z,98445.01
2018-11-21T07:32:02.641Z,98452.33
2018-11-21T07:34:30.789Z,98457.32
2018-11-21T07:36:58.953Z,98457.34
2018-11-21T07:39:27.084Z,98466.49
2018-11-21T07:41:55.219Z,98467.66
2018-11-21T07:44:23.386Z,98460.83
2018-11-21T07:46:51.528Z,98460.16
2018-11-21T07:49:19.754Z,98454.30
2018-11-21T07:51:47.925Z,98452.56
2018-11-21T07:54:16.858Z,98454.67
2018-11-21T07:57:12.438Z,98454.67
2018-11-21T08:00:00.723Z,98460.66
2018-11-21T08:02:34.398Z,98462.59
2018-11-21T08:05:11.369Z,98456.11
2018-11-21T08:07:47.451Z,98464.62
2018-11-21T08:10:43.721Z,98466.39
2018-11-21T08:13:42.608Z,98473.80
2018-11-21T08:16:32.806Z,98470.26
2018-11-21T08:19:22.599Z,98468.08
2018-11-21T08:22:13.217Z,98473.39
2018-11-21T08:25:05.996Z,98473.00
2018-11-21T08:27:43.598Z,98479.83
2018-11-21T08:30:11.698Z,98487.89
2018-11-21T08:32:39.879Z,98490.69
2018-11-21T08:35:07.997Z,98488.36
2018-11-21T08:37:36.109Z,98498.16
2018-11-21T08:40:04.316Z,98496.86
2018-11-21T08:42:32.442Z,98499.97
2018-11-21T08:45:00.577Z,98501.00
2018-11-21T08:47:28.707Z,98506.28
2018-11-21T08:49:56.897Z,98509.13
2018-11-21T08:52:25.014Z,98503.42
2018-11-21T08:54:53.171Z,98512.22
2018-11-21T08:57:21.374Z,98523.09
2018-11-21T08:59:49.506Z,98513.80
2018-11-21T09:02:17.710Z,98515.02
2018-11-21T09:04:46.144Z,98511.04
2018-11-21T09:07:14.276Z,98511.41
2018-11-21T09:09:42.409Z,98518.64
2018-11-21T09:12:11.167Z,98520.88
2018-11-21T09:14:38.633Z,98517.72
2018-11-21T09:17:06.738Z,98518.23
2018-11-21T09:19:34.873Z,98518.55
2018-11-21T09:22:02.992Z,98518.77
2018-11-21T09:24:31.169Z,98516.48
2018-11-21T09:26:59.326Z,98525.70
2018-11-21T09:29:27.523Z,98527.09
2018-11-21T09:31:55.656Z,98530.30
2018-11-21T09:34:23.773Z,98532.89
2018-11-21T09:36:51.914Z,98547.30
2018-11-21T09:39:20.022Z,98550.73
2018-11-21T09:41:48.968Z,98543.31
2018-11-21T09:44:17.111Z,98546.97
2018-11-21T09:46:45.240Z,98560.48
2018-11-21T09:49:13.425Z,98560.48
2018-11-21T09:51:41.520Z,98561.55
2018-11-21T09:54:09.632Z,98555.39
2018-11-21T09:56:37.745Z,98559.36
2018-11-21T09:59:05.851Z,98560.78
2018-11-21T10:02:26.750Z,98571.06
2018-11-21T10:04:54.886Z,98565.35
2018-11-21T10:07:22.995Z,98560.82
2018-11-21T10:09:51.746Z,98561.22
2018-11-21T10:12:20.141Z,98549.31
2018-11-21T10:14:48.278Z,98552.52
2018-11-21T10:17:16.399Z,98548.64
2018-11-21T10:19:44.527Z,98546.81
2018-11-21T10:22:12.635Z,98550.02
2018-11-21T10:24:40.739Z,98557.05
2018-11-21T10:27:08.866Z,98550.12
2018-11-21T10:29:37.047Z,98546.37
2018-11-21T10:32:05.244Z,98544.70
2018-11-21T10:34:33.399Z,98546.68
2018-11-21T10:37:01.520Z,98547.08
2018-11-21T10:39:29.630Z,98551.20
2018-11-21T10:41:57.783Z,98553.40
2018-11-21T10:44:25.872Z,98552.39
2018-11-21T10:46:54.012Z,98555.39
2018-11-21T10:49:22.111Z,98559.91
2018-11-21T10:51:50.216Z,98549.52
2018-11-21T10:54:18.313Z,98557.69
2018-11-21T10:56:46.771Z,98554.61
2018-11-21T10:59:16.777Z,98562.26
2018-11-21T11:02:02.678Z,98556.31
2018-11-21T11:04:34.861Z,98556.08
2018-11-21T11:07:20.907Z,98560.59
2018-11-21T11:10:03.186Z,98554.03
2018-11-21T11:13:08.947Z,98553.19
2018-11-21T11:15:51.582Z,98556.52
2018-11-21T11:18:44.675Z,98548.13
2018-11-21T11:21:31.933Z,98549.30
2018-11-21T11:24:18.330Z,98559.97
2018-11-21T11:27:05.176Z,98560.73
2018-11-21T11:29:55.463Z,98562.02
2018-11-21T11:32:48.462Z,98567.81
2018-11-21T11:35:38.358Z,98568.19
2018-11-21T11:38:34.340Z,98563.61
2018-11-21T11:41:24.154Z,98568.05
2018-11-21T11:44:11.487Z,98577.42
2018-11-21T11:46:51.031Z,98572.20
2018-11-21T11:49:53.199Z,98572.81
2018-11-21T11:52:37.686Z,98563.08
2018-11-21T11:55:24.893Z,98566.64
2018-11-21T11:58:12.137Z,98564.45
2018-11-21T12:00:58.451Z,98555.63
2018-11-21T12:03:44.572Z,98559.44
2018-11-21T12:06:21.877Z,98574.77
2018-11-21T12:09:07.732Z,98570.64
2018-11-21T12:11:53.709Z,98571.72
2018-11-21T12:14:41.935Z,98574.46
2018-11-21T12:17:40.822Z,98582.67
2018-11-21T12:20:26.780Z,98584.92
2018-11-21T12:23:12.680Z,98582.33
2018-11-21T12:25:58.963Z,98585.88
2018-11-21T12:28:52.315Z,98583.30
2018-11-21T12:31:38.417Z,98587.95
2018-11-21T12:34:24.210Z,98585.12
2018-11-21T12:37:10.241Z,98586.97
2018-11-21T12:39:52.891Z,98579.09
2018-11-21T12:42:33.562Z,98580.31
2018-11-21T12:45:32.642Z,98585.05
2018-11-21T12:48:10.386Z,98583.69
2018-11-21T12:50:56.147Z,98575.20
2018-11-21T12:53:58.567Z,98573.69
2018-11-21T12:56:49.766Z,98573.69
2018-11-21T12:59:41.035Z,98569.17
2018-11-21T13:02:20.985Z,98568.13
2018-11-21T13:05:09.365Z,98563.89
2018-11-21T13:07:55.402Z,98562.44
2018-11-21T13:10:42.641Z,98564.66
2018-11-21T13:13:35.708Z,98568.92
2018-11-21T13:16:25.900Z,98572.98
2018-11-21T13:19:24.597Z,98567.73
2018-11-21T13:22:10.160Z,98573.29
2018-11-21T13:25:06.291Z,98572.25
2018-11-21T13:27:44.224Z,98573.89
2018-11-21T13:30:27.069Z,98578.11
2018-11-21T13:33:17.367Z,98580.31
2018-11-21T13:36:05.933Z,98572.76
2018-11-21T13:39:11.363Z,98581.47
2018-11-21T13:41:53.436Z,98589.53
2018-11-21T13:44:34.494Z,98586.86
2018-11-21T13:47:21.734Z,98590.61
2018-11-21T13:50:03.333Z,98596.41
2018-11-21T13:52:53.117Z,98600.63
2018-11-21T13:55:21.221Z,98607.32
2018-11-21T13:57:49.308Z,98608.23
2018-11-21T14:00:17.408Z,98602.36
2018-11-21T14:02:45.557Z,98600.63
2018-11-21T14:05:13.652Z,98608.55
2018-11-21T14:07:41.779Z,98614.58
2018-11-21T14:10:11.250Z,98614.05
2018-11-21T14:12:39.543Z,98620.67
2018-11-21T14:15:08.768Z,98618.17
2018-11-21T14:17:36.904Z,98624.80
2018-11-21T14:20:08.497Z,98622.90
2018-11-21T14:22:36.811Z,98630.67
2018-11-21T14:25:06.310Z,98636.48
2018-11-21T14:27:34.458Z,98641.83
2018-11-21T14:30:02.569Z,98642.80
2018-11-21T14:32:30.703Z,98648.38
2018-11-21T14:34:58.806Z,98663.56
2018-11-21T14:37:26.935Z,98667.68
2018-11-21T14:39:55.062Z,98668.16
2018-11-21T14:42:23.180Z,98673.72
2018-11-21T14:44:51.270Z,98673.92
2018-11-21T14:47:19.430Z,98677.50
2018-11-21T14:49:51.872Z,98686.23
2018-11-21T14:52:19.992Z,98691.10
2018-11-21T14:54:48.185Z,98690.13
2018-11-21T14:57:16.325Z,98697.51
2018-11-21T14:59:44.438Z,98697.51
2018-11-21T15:02:12.575Z,98695.58
2018-11-21T15:04:40.680Z,98699.41
2018-11-21T15:07:08.815Z,98698.89
2018-11-21T15:09:36.931Z,98703.67
2018-11-21T15:12:05.456Z,98703.83
2018-11-21T15:14:33.575Z,98712.75
2018-11-21T15:17:01.760Z,98706.98
2018-11-21T15:19:29.896Z,98706.09
2018-11-21T15:21:58.001Z,98717.08
2018-11-21T15:24:26.144Z,98718.83
2018-11-21T15:26:54.244Z,98726.56
2018-11-21T15:29:22.362Z,98727.73
2018-11-21T15:31:50.461Z,98736.69
2018-11-21T15:34:18.583Z,98738.60
2018-11-21T15:36:46.708Z,98741.72
2018-11-21T15:39:14.839Z,98743.52
2018-11-21T15:41:42.963Z,98747.67
2018-11-21T15:44:11.076Z,98747.52
2018-11-21T15:46:45.430Z,98752.13
2018-11-21T15:49:07.323Z,98756.24
2018-11-21T15:51:35.449Z,98762.65
2018-11-21T15:54:03.879Z,98767.68
2018-11-21T15:56:32.408Z,98765.39
2018-11-21T15:59:00.504Z,98764.27
2018-11-21T16:01:28.607Z,98759.70
2018-11-21T16:03:56.762Z,98771.37
2018-11-21T16:06:24.889Z,98771.10
2018-11-21T16:08:53.008Z,98780.17
2018-11-21T16:11:21.124Z,98777.18
2018-11-21T16:13:49.230Z,98781.37
2018-11-21T16:16:17.330Z,98782.89
2018-11-21T16:18:45.477Z,98786.92
2018-11-21T16:21:13.588Z,98780.00
2018-11-21T16:23:41.710Z,98778.70
2018-11-21T16:26:09.824Z,98778.55
2018-11-21T16:28:37.968Z,98777.11
2018-11-21T16:31:06.430Z,98777.84
2018-11-21T16:33:34.553Z,98779.23
2018-11-21T16:36:03.563Z,98785.88
2018-11-21T16:38:31.703Z,98783.81
2018-11-21T16:40:59.809Z,98786.92
2018-11-21T16:43:27.935Z,98784.70
2018-11-21T16:45:57.312Z,98785.27
2018-11-21T16:48:25.446Z,98788.38
2018-11-21T16:50:53.602Z,98794.53
2018-11-21T16:53:21.762Z,98792.53
2018-11-21T16:55:49.910Z,98799.63
2018-11-21T16:58:18.069Z,98802.41
2018-11-21T17:00:46.202Z,98811.22
2018-11-21T17:03:14.310Z,98809.63
2018-11-21T17:05:42.444Z,98802.11
2018-11-21T17:08:10.599Z,98802.11
2018-11-21T17:10:38.721Z,98810.70
2018-11-21T17:13:06.854Z,98815.07
2018-11-21T17:15:35.469Z,98808.37
2018-11-21T17:18:03.572Z,98816.81
2018-11-21T17:20:36.344Z,98814.56
2018-11-21T17:23:05.420Z,98810.00
2018-11-21T17:25:35.367Z,98812.49
2018-11-21T17:28:03.494Z,98800.83
2018-11-21T17:30:31.616Z,98800.83
2018-11-21T17:32:59.726Z,98806.45
2018-11-21T17:35:27.826Z,98806.45
2018-11-21T17:38:01.948Z,98803.02
2018-11-21T17:40:30.436Z,98808.08
2018-11-21T17:42:58.911Z,98801.27
2018-11-21T17:45:27.037Z,98806.02
2018-11-21T17:47:55.182Z,98806.78
2018-11-21T17:50:24.216Z,98808.20
2018-11-21T17:52:53.710Z,98811.72
2018-11-21T17:55:23.553Z,98820.64
2018-11-21T17:57:51.666Z,98817.93
2018-11-21T18:00:21.154Z,98826.52
2018-11-21T18:02:49.290Z,98822.18
2018-11-21T18:05:18.942Z,98828.59
2018-11-21T18:07:47.106Z,98826.67
2018-11-21T18:10:16.641Z,98835.30
2018-11-21T18:12:45.262Z,98834.97
2018-11-21T18:15:14.051Z,98831.66
2018-11-21T18:17:44.311Z,98837.56
2018-11-21T18:20:13.384Z,98830.23
2018-11-21T18:22:42.195Z,98829.48
2018-11-21T18:25:28.082Z,98836.78
2018-11-21T18:27:56.486Z,98835.97
2018-11-21T18:30:25.171Z,98838.55
2018-11-21T18:32:53.287Z,98846.08
2018-11-21T18:35:22.477Z,98839.38
2018-11-21T18:37:50.618Z,98842.81
2018-11-21T18:40:20.478Z,98840.59
2018-11-21T18:42:48.767Z,98842.11
2018-11-21T18:45:19.516Z,98848.97
2018-11-21T18:47:48.029Z,98844.63
2018-11-21T18:50:17.260Z,98851.55
2018-11-21T18:52:45.732Z,98848.07
2018-11-21T18:55:16.153Z,98848.97
2018-11-21T18:58:30.538Z,98842.37
2018-11-21T19:00:58.666Z,98848.85
